sensor_id;sensor_type;location;lat;lon;timestamp;P1;durP1;ratioP1;P2;durP2;ratioP2
73954;SDS011;62306;52.516;13.290;2023-06-22T00:00:45;17.77;;;14.02;;
73954;SDS011;62306;52.516;13.290;2023-06-22T00:03:12;16.35;;;14.20;;
73954;SDS011;62306;52.516;13.290;2023-06-22T00:05:39;14.82;;;13.32;;
73954;SDS011;62306;52.516;13.290;2023-06-22T00:08:07;16.20;;;13.48;;
73954;SDS011;62306;52.516;13.290;2023-06-22T00:10:34;17.38;;;13.88;;
73954;SDS011;62306;52.516;13.290;2023-06-22T00:13:01;14.70;;;13.10;;
73954;SDS011;62306;52.516;13.290;2023-06-22T00:15:28;16.30;;;13.20;;
73954;SDS011;62306;52.516;13.290;2023-06-22T00:17:55;15.93;;;13.32;;
73954;SDS011;62306;52.516;13.290;2023-06-22T00:20:24;15.35;;;12.45;;
73954;SDS011;62306;52.516;13.290;2023-06-22T00:22:53;15.65;;;13.95;;
73954;SDS011;62306;52.516;13.290;2023-06-22T00:25:21;17.05;;;13.43;;
73954;SDS011;62306;52.516;13.290;2023-06-22T00:27:48;15.23;;;13.35;;
73954;SDS011;62306;52.516;13.290;2023-06-22T00:30:16;16.05;;;13.25;;
73954;SDS011;62306;52.516;13.290;2023-06-22T00:32:43;15.20;;;13.43;;
73954;SDS011;62306;52.516;13.290;2023-06-22T00:35:11;17.45;;;12.85;;
73954;SDS011;62306;52.516;13.290;2023-06-22T00:37:38;16.20;;;13.70;;
73954;SDS011;62306;52.516;13.290;2023-06-22T00:40:07;14.35;;;11.88;;
73954;SDS011;62306;52.516;13.290;2023-06-22T00:42:37;14.43;;;12.45;;
73954;SDS011;62306;52.516;13.290;2023-06-22T00:45:05;13.07;;;11.70;;
73954;SDS011;62306;52.516;13.290;2023-06-22T00:47:33;15.88;;;12.27;;
73954;SDS011;62306;52.516;13.290;2023-06-22T00:50:01;17.33;;;12.70;;
73954;SDS011;62306;52.516;13.290;2023-06-22T00:52:29;17.92;;;12.45;;
73954;SDS011;62306;52.516;13.290;2023-06-22T00:54:58;14.48;;;11.27;;
73954;SDS011;62306;52.516;13.290;2023-06-22T00:57:27;16.33;;;12.02;;
73954;SDS011;62306;52.516;13.290;2023-06-22T00:59:56;14.00;;;12.35;;
73954;SDS011;62306;52.516;13.290;2023-06-22T01:02:22;16.15;;;11.52;;
73954;SDS011;62306;52.516;13.290;2023-06-22T01:04:49;13.75;;;11.15;;
73954;SDS011;62306;52.516;13.290;2023-06-22T01:07:18;12.52;;;10.68;;
73954;SDS011;62306;52.516;13.290;2023-06-22T01:09:52;15.60;;;11.48;;
73954;SDS011;62306;52.516;13.290;2023-06-22T01:12:25;18.58;;;11.82;;
73954;SDS011;62306;52.516;13.290;2023-06-22T01:14:57;14.18;;;11.02;;
73954;SDS011;62306;52.516;13.290;2023-06-22T01:17:31;14.68;;;11.80;;
73954;SDS011;62306;52.516;13.290;2023-06-22T01:19:59;14.50;;;11.52;;
73954;SDS011;62306;52.516;13.290;2023-06-22T01:22:31;13.00;;;10.95;;
73954;SDS011;62306;52.516;13.290;2023-06-22T01:25:06;21.13;;;12.48;;
73954;SDS011;62306;52.516;13.290;2023-06-22T01:27:39;13.52;;;12.02;;
73954;SDS011;62306;52.516;13.290;2023-06-22T01:30:15;13.10;;;11.70;;
73954;SDS011;62306;52.516;13.290;2023-06-22T01:32:45;14.20;;;11.80;;
73954;SDS011;62306;52.516;13.290;2023-06-22T01:35:13;14.95;;;11.88;;
73954;SDS011;62306;52.516;13.290;2023-06-22T01:37:41;15.68;;;12.43;;
73954;SDS011;62306;52.516;13.290;2023-06-22T01:40:08;17.25;;;12.07;;
73954;SDS011;62306;52.516;13.290;2023-06-22T01:42:36;15.70;;;12.50;;
73954;SDS011;62306;52.516;13.290;2023-06-22T01:45:05;13.35;;;11.43;;
73954;SDS011;62306;52.516;13.290;2023-06-22T01:47:34;20.63;;;12.32;;
73954;SDS011;62306;52.516;13.290;2023-06-22T01:50:01;13.70;;;11.70;;
73954;SDS011;62306;52.516;13.290;2023-06-22T01:52:29;14.25;;;11.80;;
73954;SDS011;62306;52.516;13.290;2023-06-22T01:54:56;15.15;;;11.88;;
73954;SDS011;62306;52.516;13.290;2023-06-22T01:57:23;18.55;;;12.60;;
73954;SDS011;62306;52.516;13.290;2023-06-22T01:59:52;24.98;;;13.65;;
73954;SDS011;62306;52.516;13.290;2023-06-22T02:02:25;15.63;;;12.05;;
73954;SDS011;62306;52.516;13.290;2023-06-22T02:04:58;15.40;;;12.50;;
73954;SDS011;62306;52.516;13.290;2023-06-22T02:07:30;17.07;;;12.90;;
73954;SDS011;62306;52.516;13.290;2023-06-22T02:10:00;17.05;;;13.60;;
73954;SDS011;62306;52.516;13.290;2023-06-22T02:12:29;19.27;;;14.02;;
73954;SDS011;62306;52.516;13.290;2023-06-22T02:14:58;20.02;;;14.65;;
73954;SDS011;62306;52.516;13.290;2023-06-22T02:17:26;18.75;;;13.88;;
73954;SDS011;62306;52.516;13.290;2023-06-22T02:19:53;18.20;;;13.60;;
73954;SDS011;62306;52.516;13.290;2023-06-22T02:22:22;18.77;;;14.75;;
73954;SDS011;62306;52.516;13.290;2023-06-22T02:24:49;18.48;;;14.52;;
73954;SDS011;62306;52.516;13.290;2023-06-22T02:27:15;19.48;;;14.38;;
73954;SDS011;62306;52.516;13.290;2023-06-22T02:29:42;20.65;;;14.20;;
73954;SDS011;62306;52.516;13.290;2023-06-22T02:32:09;18.20;;;14.52;;
73954;SDS011;62306;52.516;13.290;2023-06-22T02:34:36;19.85;;;14.52;;
73954;SDS011;62306;52.516;13.290;2023-06-22T02:37:03;24.23;;;17.20;;
73954;SDS011;62306;52.516;13.290;2023-06-22T02:39:32;16.85;;;14.90;;
73954;SDS011;62306;52.516;13.290;2023-06-22T02:41:59;22.50;;;16.13;;
73954;SDS011;62306;52.516;13.290;2023-06-22T02:44:26;23.20;;;16.15;;
73954;SDS011;62306;52.516;13.290;2023-06-22T02:46:53;20.45;;;17.10;;
73954;SDS011;62306;52.516;13.290;2023-06-22T02:49:20;18.38;;;15.18;;
73954;SDS011;62306;52.516;13.290;2023-06-22T02:51:47;21.05;;;16.50;;
73954;SDS011;62306;52.516;13.290;2023-06-22T02:54:15;23.40;;;16.45;;
73954;SDS011;62306;52.516;13.290;2023-06-22T02:56:44;21.13;;;16.73;;
73954;SDS011;62306;52.516;13.290;2023-06-22T02:59:10;28.52;;;18.15;;
73954;SDS011;62306;52.516;13.290;2023-06-22T03:01:37;22.38;;;17.55;;
73954;SDS011;62306;52.516;13.290;2023-06-22T03:04:06;20.90;;;17.83;;
73954;SDS011;62306;52.516;13.290;2023-06-22T03:06:33;18.80;;;15.75;;
73954;SDS011;62306;52.516;13.290;2023-06-22T03:09:00;26.80;;;18.75;;
73954;SDS011;62306;52.516;13.290;2023-06-22T03:11:29;21.85;;;17.35;;
73954;SDS011;62306;52.516;13.290;2023-06-22T03:13:58;19.17;;;15.77;;
73954;SDS011;62306;52.516;13.290;2023-06-22T03:16:25;22.27;;;16.05;;
73954;SDS011;62306;52.516;13.290;2023-06-22T03:18:52;23.10;;;15.43;;
73954;SDS011;62306;52.516;13.290;2023-06-22T03:21:19;24.10;;;15.68;;
73954;SDS011;62306;52.516;13.290;2023-06-22T03:23:48;20.05;;;16.17;;
73954;SDS011;62306;52.516;13.290;2023-06-22T03:26:16;18.85;;;15.35;;
73954;SDS011;62306;52.516;13.290;2023-06-22T03:28:43;22.25;;;16.00;;
73954;SDS011;62306;52.516;13.290;2023-06-22T03:31:12;19.50;;;13.88;;
73954;SDS011;62306;52.516;13.290;2023-06-22T03:33:38;23.20;;;14.55;;
73954;SDS011;62306;52.516;13.290;2023-06-22T03:36:05;23.58;;;14.88;;
73954;SDS011;62306;52.516;13.290;2023-06-22T03:38:32;16.98;;;13.75;;
73954;SDS011;62306;52.516;13.290;2023-06-22T03:40:59;21.75;;;14.85;;
73954;SDS011;62306;52.516;13.290;2023-06-22T03:43:26;21.70;;;12.95;;
73954;SDS011;62306;52.516;13.290;2023-06-22T03:45:53;18.30;;;12.07;;
73954;SDS011;62306;52.516;13.290;2023-06-22T03:48:21;17.17;;;11.20;;
73954;SDS011;62306;52.516;13.290;2023-06-22T03:50:48;16.30;;;10.65;;
73954;SDS011;62306;52.516;13.290;2023-06-22T03:53:15;27.25;;;10.70;;
73954;SDS011;62306;52.516;13.290;2023-06-22T03:55:47;14.27;;;11.07;;
73954;SDS011;62306;52.516;13.290;2023-06-22T03:58:15;18.92;;;10.48;;
73954;SDS011;62306;52.516;13.290;2023-06-22T04:00:44;13.88;;;10.38;;
73954;SDS011;62306;52.516;13.290;2023-06-22T04:03:11;12.13;;;9.82;;
73954;SDS011;62306;52.516;13.290;2023-06-22T04:05:39;12.93;;;9.27;;
73954;SDS011;62306;52.516;13.290;2023-06-22T04:08:06;13.50;;;10.27;;
73954;SDS011;62306;52.516;13.290;2023-06-22T04:10:33;11.55;;;9.73;;
73954;SDS011;62306;52.516;13.290;2023-06-22T04:13:00;12.85;;;10.00;;
73954;SDS011;62306;52.516;13.290;2023-06-22T04:15:27;12.40;;;9.30;;
73954;SDS011;62306;52.516;13.290;2023-06-22T04:17:54;16.45;;;10.15;;
73954;SDS011;62306;52.516;13.290;2023-06-22T04:20:22;18.35;;;13.43;;
73954;SDS011;62306;52.516;13.290;2023-06-22T04:22:52;15.40;;;11.02;;
73954;SDS011;62306;52.516;13.290;2023-06-22T04:25:19;11.20;;;9.52;;
73954;SDS011;62306;52.516;13.290;2023-06-22T04:27:46;14.80;;;10.52;;
73954;SDS011;62306;52.516;13.290;2023-06-22T04:30:13;18.42;;;13.43;;
73954;SDS011;62306;52.516;13.290;2023-06-22T04:32:42;14.13;;;9.90;;
73954;SDS011;62306;52.516;13.290;2023-06-22T04:35:09;12.07;;;8.70;;
73954;SDS011;62306;52.516;13.290;2023-06-22T04:37:36;12.68;;;9.82;;
73954;SDS011;62306;52.516;13.290;2023-06-22T04:40:06;11.65;;;9.85;;
73954;SDS011;62306;52.516;13.290;2023-06-22T04:42:34;13.70;;;10.27;;
73954;SDS011;62306;52.516;13.290;2023-06-22T04:45:02;15.70;;;9.27;;
73954;SDS011;62306;52.516;13.290;2023-06-22T04:47:29;10.88;;;7.35;;
73954;SDS011;62306;52.516;13.290;2023-06-22T04:49:56;9.35;;;7.03;;
73954;SDS011;62306;52.516;13.290;2023-06-22T04:52:23;12.90;;;7.65;;
73954;SDS011;62306;52.516;13.290;2023-06-22T04:54:50;11.70;;;7.38;;
73954;SDS011;62306;52.516;13.290;2023-06-22T04:57:22;7.68;;;6.88;;
73954;SDS011;62306;52.516;13.290;2023-06-22T04:59:55;8.05;;;6.70;;
73954;SDS011;62306;52.516;13.290;2023-06-22T05:02:23;11.65;;;6.88;;
73954;SDS011;62306;52.516;13.290;2023-06-22T05:04:52;10.82;;;5.85;;
73954;SDS011;62306;52.516;13.290;2023-06-22T05:07:21;8.65;;;6.55;;
73954;SDS011;62306;52.516;13.290;2023-06-22T05:09:50;8.38;;;6.28;;
73954;SDS011;62306;52.516;13.290;2023-06-22T05:12:17;9.18;;;6.47;;
73954;SDS011;62306;52.516;13.290;2023-06-22T05:14:45;7.13;;;5.65;;
73954;SDS011;62306;52.516;13.290;2023-06-22T05:17:12;11.25;;;6.28;;
73954;SDS011;62306;52.516;13.290;2023-06-22T05:19:39;8.48;;;5.05;;
73954;SDS011;62306;52.516;13.290;2023-06-22T05:22:14;10.43;;;5.45;;
73954;SDS011;62306;52.516;13.290;2023-06-22T05:24:41;11.52;;;5.80;;
73954;SDS011;62306;52.516;13.290;2023-06-22T05:27:07;9.52;;;6.63;;
73954;SDS011;62306;52.516;13.290;2023-06-22T05:29:34;9.43;;;4.97;;
73954;SDS011;62306;52.516;13.290;2023-06-22T05:32:03;11.65;;;5.65;;
73954;SDS011;62306;52.516;13.290;2023-06-22T05:34:31;7.97;;;5.57;;
73954;SDS011;62306;52.516;13.290;2023-06-22T05:36:58;10.27;;;5.53;;
73954;SDS011;62306;52.516;13.290;2023-06-22T05:39:25;8.30;;;4.88;;
73954;SDS011;62306;52.516;13.290;2023-06-22T05:41:52;37.10;;;26.23;;
73954;SDS011;62306;52.516;13.290;2023-06-22T05:44:19;12.45;;;9.45;;
73954;SDS011;62306;52.516;13.290;2023-06-22T05:46:46;10.88;;;4.70;;
73954;SDS011;62306;52.516;13.290;2023-06-22T05:49:14;9.73;;;4.60;;
73954;SDS011;62306;52.516;13.290;2023-06-22T05:51:42;10.10;;;4.72;;
73954;SDS011;62306;52.516;13.290;2023-06-22T05:54:10;7.32;;;4.65;;
73954;SDS011;62306;52.516;13.290;2023-06-22T05:56:38;9.80;;;6.03;;
73954;SDS011;62306;52.516;13.290;2023-06-22T05:59:05;9.20;;;5.20;;
73954;SDS011;62306;52.516;13.290;2023-06-22T06:01:32;10.75;;;4.50;;
73954;SDS011;62306;52.516;13.290;2023-06-22T06:04:01;6.45;;;4.30;;
73954;SDS011;62306;52.516;13.290;2023-06-22T06:06:30;8.70;;;4.90;;
73954;SDS011;62306;52.516;13.290;2023-06-22T06:08:57;8.20;;;4.43;;
73954;SDS011;62306;52.516;13.290;2023-06-22T06:11:24;10.68;;;4.65;;
73954;SDS011;62306;52.516;13.290;2023-06-22T06:13:52;7.82;;;4.90;;
73954;SDS011;62306;52.516;13.290;2023-06-22T06:16:19;9.40;;;4.72;;
73954;SDS011;62306;52.516;13.290;2023-06-22T06:18:46;6.80;;;3.85;;
73954;SDS011;62306;52.516;13.290;2023-06-22T06:21:13;5.25;;;3.80;;
73954;SDS011;62306;52.516;13.290;2023-06-22T06:23:41;5.10;;;3.97;;
73954;SDS011;62306;52.516;13.290;2023-06-22T06:26:08;7.38;;;3.63;;
73954;SDS011;62306;52.516;13.290;2023-06-22T06:28:35;6.47;;;3.63;;
73954;SDS011;62306;52.516;13.290;2023-06-22T06:31:02;7.55;;;4.13;;
73954;SDS011;62306;52.516;13.290;2023-06-22T06:33:32;7.43;;;4.40;;
73954;SDS011;62306;52.516;13.290;2023-06-22T06:35:59;6.20;;;4.30;;
73954;SDS011;62306;52.516;13.290;2023-06-22T06:38:28;7.15;;;4.13;;
73954;SDS011;62306;52.516;13.290;2023-06-22T06:40:57;7.53;;;4.30;;
73954;SDS011;62306;52.516;13.290;2023-06-22T06:43:24;10.73;;;4.75;;
73954;SDS011;62306;52.516;13.290;2023-06-22T06:45:51;5.70;;;3.50;;
73954;SDS011;62306;52.516;13.290;2023-06-22T06:48:18;6.95;;;4.65;;
73954;SDS011;62306;52.516;13.290;2023-06-22T06:50:45;15.10;;;11.82;;
73954;SDS011;62306;52.516;13.290;2023-06-22T06:53:12;9.48;;;6.35;;
73954;SDS011;62306;52.516;13.290;2023-06-22T06:55:39;6.18;;;4.90;;
73954;SDS011;62306;52.516;13.290;2023-06-22T06:58:07;8.20;;;4.90;;
73954;SDS011;62306;52.516;13.290;2023-06-22T07:00:37;14.55;;;3.65;;
73954;SDS011;62306;52.516;13.290;2023-06-22T07:03:03;6.63;;;3.65;;
73954;SDS011;62306;52.516;13.290;2023-06-22T07:05:32;6.80;;;4.28;;
73954;SDS011;62306;52.516;13.290;2023-06-22T07:07:58;4.97;;;3.88;;
73954;SDS011;62306;52.516;13.290;2023-06-22T07:10:25;8.25;;;3.80;;
73954;SDS011;62306;52.516;13.290;2023-06-22T07:12:52;5.60;;;3.10;;
73954;SDS011;62306;52.516;13.290;2023-06-22T07:15:21;9.07;;;3.83;;
73954;SDS011;62306;52.516;13.290;2023-06-22T07:17:48;5.82;;;3.55;;
73954;SDS011;62306;52.516;13.290;2023-06-22T07:20:15;8.60;;;3.55;;
73954;SDS011;62306;52.516;13.290;2023-06-22T07:22:42;9.82;;;4.53;;
73954;SDS011;62306;52.516;13.290;2023-06-22T07:25:11;9.35;;;4.00;;
73954;SDS011;62306;52.516;13.290;2023-06-22T07:27:39;8.93;;;4.05;;
73954;SDS011;62306;52.516;13.290;2023-06-22T07:30:10;5.50;;;3.25;;
73954;SDS011;62306;52.516;13.290;2023-06-22T07:32:39;4.60;;;3.17;;
73954;SDS011;62306;52.516;13.290;2023-06-22T07:35:06;7.45;;;3.47;;
73954;SDS011;62306;52.516;13.290;2023-06-22T07:37:34;4.60;;;3.13;;
73954;SDS011;62306;52.516;13.290;2023-06-22T07:40:01;6.32;;;3.25;;
73954;SDS011;62306;52.516;13.290;2023-06-22T07:42:31;7.65;;;2.85;;
73954;SDS011;62306;52.516;13.290;2023-06-22T07:44:59;7.68;;;3.30;;
73954;SDS011;62306;52.516;13.290;2023-06-22T07:47:26;9.43;;;2.90;;
73954;SDS011;62306;52.516;13.290;2023-06-22T07:49:55;10.60;;;3.85;;
73954;SDS011;62306;52.516;13.290;2023-06-22T07:52:23;8.38;;;2.80;;
73954;SDS011;62306;52.516;13.290;2023-06-22T07:54:50;7.93;;;3.65;;
73954;SDS011;62306;52.516;13.290;2023-06-22T07:57:17;5.25;;;3.10;;
73954;SDS011;62306;52.516;13.290;2023-06-22T07:59:44;4.80;;;3.60;;
73954;SDS011;62306;52.516;13.290;2023-06-22T08:02:11;3.70;;;2.67;;
73954;SDS011;62306;52.516;13.290;2023-06-22T08:04:38;4.78;;;2.97;;
73954;SDS011;62306;52.516;13.290;2023-06-22T08:07:07;9.63;;;2.60;;
73954;SDS011;62306;52.516;13.290;2023-06-22T08:09:34;5.03;;;3.00;;
73954;SDS011;62306;52.516;13.290;2023-06-22T08:12:02;5.75;;;3.30;;
73954;SDS011;62306;52.516;13.290;2023-06-22T08:14:29;7.50;;;3.53;;
73954;SDS011;62306;52.516;13.290;2023-06-22T08:16:56;8.52;;;2.65;;
73954;SDS011;62306;52.516;13.290;2023-06-22T08:19:23;4.00;;;2.70;;
73954;SDS011;62306;52.516;13.290;2023-06-22T08:21:50;19.23;;;13.80;;
73954;SDS011;62306;52.516;13.290;2023-06-22T08:24:18;17.23;;;11.60;;
73954;SDS011;62306;52.516;13.290;2023-06-22T08:26:45;4.57;;;2.88;;
73954;SDS011;62306;52.516;13.290;2023-06-22T08:29:12;7.55;;;3.40;;
73954;SDS011;62306;52.516;13.290;2023-06-22T08:31:39;6.22;;;2.60;;
73954;SDS011;62306;52.516;13.290;2023-06-22T08:34:06;9.10;;;4.75;;
73954;SDS011;62306;52.516;13.290;2023-06-22T08:36:33;9.63;;;3.20;;
73954;SDS011;62306;52.516;13.290;2023-06-22T08:39:02;5.65;;;3.80;;
73954;SDS011;62306;52.516;13.290;2023-06-22T08:41:31;7.32;;;3.33;;
73954;SDS011;62306;52.516;13.290;2023-06-22T08:43:57;9.48;;;3.53;;
73954;SDS011;62306;52.516;13.290;2023-06-22T08:46:24;7.45;;;4.82;;
73954;SDS011;62306;52.516;13.290;2023-06-22T08:48:55;6.85;;;3.30;;
73954;SDS011;62306;52.516;13.290;2023-06-22T08:51:23;6.75;;;3.63;;
73954;SDS011;62306;52.516;13.290;2023-06-22T08:53:50;6.75;;;4.13;;
73954;SDS011;62306;52.516;13.290;2023-06-22T08:56:17;4.72;;;3.20;;
73954;SDS011;62306;52.516;13.290;2023-06-22T08:58:45;5.85;;;4.85;;
73954;SDS011;62306;52.516;13.290;2023-06-22T09:01:12;4.38;;;2.97;;
73954;SDS011;62306;52.516;13.290;2023-06-22T09:03:40;8.95;;;3.25;;
73954;SDS011;62306;52.516;13.290;2023-06-22T09:06:07;3.30;;;2.75;;
73954;SDS011;62306;52.516;13.290;2023-06-22T09:08:35;5.47;;;3.85;;
73954;SDS011;62306;52.516;13.290;2023-06-22T09:11:02;5.20;;;3.25;;
73954;SDS011;62306;52.516;13.290;2023-06-22T09:13:30;3.72;;;2.97;;
73954;SDS011;62306;52.516;13.290;2023-06-22T09:15:59;12.95;;;3.35;;
73954;SDS011;62306;52.516;13.290;2023-06-22T09:18:26;7.70;;;3.85;;
73954;SDS011;62306;52.516;13.290;2023-06-22T09:20:53;8.23;;;3.40;;
73954;SDS011;62306;52.516;13.290;2023-06-22T09:23:19;9.27;;;4.00;;
73954;SDS011;62306;52.516;13.290;2023-06-22T09:25:46;6.57;;;3.65;;
73954;SDS011;62306;52.516;13.290;2023-06-22T09:28:13;6.47;;;3.63;;
73954;SDS011;62306;52.516;13.290;2023-06-22T09:30:40;4.10;;;3.53;;
73954;SDS011;62306;52.516;13.290;2023-06-22T09:33:10;13.75;;;4.72;;
73954;SDS011;62306;52.516;13.290;2023-06-22T09:35:37;7.78;;;3.65;;
73954;SDS011;62306;52.516;13.290;2023-06-22T09:38:04;9.20;;;4.80;;
73954;SDS011;62306;52.516;13.290;2023-06-22T09:40:31;5.60;;;3.45;;
73954;SDS011;62306;52.516;13.290;2023-06-22T09:43:00;7.07;;;3.78;;
73954;SDS011;62306;52.516;13.290;2023-06-22T09:45:27;5.05;;;3.80;;
73954;SDS011;62306;52.516;13.290;2023-06-22T09:47:54;12.38;;;6.40;;
73954;SDS011;62306;52.516;13.290;2023-06-22T09:50:22;4.13;;;3.45;;
73954;SDS011;62306;52.516;13.290;2023-06-22T09:52:49;5.95;;;3.50;;
73954;SDS011;62306;52.516;13.290;2023-06-22T09:55:19;8.52;;;4.57;;
73954;SDS011;62306;52.516;13.290;2023-06-22T09:57:47;10.90;;;6.93;;
73954;SDS011;62306;52.516;13.290;2023-06-22T10:00:14;5.53;;;4.10;;
73954;SDS011;62306;52.516;13.290;2023-06-22T10:02:43;6.03;;;3.45;;
73954;SDS011;62306;52.516;13.290;2023-06-22T10:05:10;5.72;;;3.90;;
73954;SDS011;62306;52.516;13.290;2023-06-22T10:07:39;6.40;;;3.85;;
73954;SDS011;62306;52.516;13.290;2023-06-22T10:10:08;6.05;;;4.18;;
73954;SDS011;62306;52.516;13.290;2023-06-22T10:12:35;4.88;;;4.10;;
73954;SDS011;62306;52.516;13.290;2023-06-22T10:15:02;5.90;;;3.67;;
73954;SDS011;62306;52.516;13.290;2023-06-22T10:17:30;7.28;;;6.07;;
73954;SDS011;62306;52.516;13.290;2023-06-22T10:19:56;5.47;;;3.80;;
73954;SDS011;62306;52.516;13.290;2023-06-22T10:22:23;7.00;;;4.05;;
73954;SDS011;62306;52.516;13.290;2023-06-22T10:24:51;5.57;;;4.50;;
73954;SDS011;62306;52.516;13.290;2023-06-22T10:27:18;12.15;;;7.15;;
73954;SDS011;62306;52.516;13.290;2023-06-22T10:29:45;7.57;;;4.20;;
73954;SDS011;62306;52.516;13.290;2023-06-22T10:32:12;5.05;;;3.67;;
73954;SDS011;62306;52.516;13.290;2023-06-22T10:34:39;7.40;;;4.60;;
73954;SDS011;62306;52.516;13.290;2023-06-22T10:37:05;6.72;;;6.03;;
73954;SDS011;62306;52.516;13.290;2023-06-22T10:39:32;7.03;;;4.22;;
73954;SDS011;62306;52.516;13.290;2023-06-22T10:42:00;5.13;;;4.55;;
73954;SDS011;62306;52.516;13.290;2023-06-22T10:44:27;9.80;;;4.63;;
73954;SDS011;62306;52.516;13.290;2023-06-22T10:46:54;5.05;;;3.90;;
73954;SDS011;62306;52.516;13.290;2023-06-22T10:49:21;7.28;;;4.45;;
73954;SDS011;62306;52.516;13.290;2023-06-22T10:51:48;6.63;;;4.32;;
73954;SDS011;62306;52.516;13.290;2023-06-22T10:54:14;7.40;;;4.38;;
73954;SDS011;62306;52.516;13.290;2023-06-22T10:56:43;9.45;;;5.63;;
73954;SDS011;62306;52.516;13.290;2023-06-22T10:59:11;8.05;;;5.72;;
73954;SDS011;62306;52.516;13.290;2023-06-22T11:01:38;6.78;;;5.00;;
73954;SDS011;62306;52.516;13.290;2023-06-22T11:04:05;6.25;;;4.88;;
73954;SDS011;62306;52.516;13.290;2023-06-22T11:06:32;8.00;;;4.50;;
73954;SDS011;62306;52.516;13.290;2023-06-22T11:08:59;6.15;;;4.70;;
73954;SDS011;62306;52.516;13.290;2023-06-22T11:11:25;14.98;;;12.48;;
73954;SDS011;62306;52.516;13.290;2023-06-22T11:13:52;6.38;;;4.68;;
73954;SDS011;62306;52.516;13.290;2023-06-22T11:16:21;7.20;;;4.50;;
73954;SDS011;62306;52.516;13.290;2023-06-22T11:18:47;7.68;;;5.32;;
73954;SDS011;62306;52.516;13.290;2023-06-22T11:21:14;6.88;;;4.97;;
73954;SDS011;62306;52.516;13.290;2023-06-22T11:23:41;9.20;;;4.78;;
73954;SDS011;62306;52.516;13.290;2023-06-22T11:26:08;5.47;;;4.63;;
73954;SDS011;62306;52.516;13.290;2023-06-22T11:28:35;5.00;;;4.50;;
73954;SDS011;62306;52.516;13.290;2023-06-22T11:31:02;8.30;;;6.32;;
73954;SDS011;62306;52.516;13.290;2023-06-22T11:33:31;6.13;;;4.85;;
73954;SDS011;62306;52.516;13.290;2023-06-22T11:35:58;5.10;;;4.38;;
73954;SDS011;62306;52.516;13.290;2023-06-22T11:38:25;4.65;;;4.15;;
73954;SDS011;62306;52.516;13.290;2023-06-22T11:40:52;5.55;;;4.47;;
73954;SDS011;62306;52.516;13.290;2023-06-22T11:43:19;5.80;;;4.47;;
73954;SDS011;62306;52.516;13.290;2023-06-22T11:45:45;6.72;;;3.85;;
73954;SDS011;62306;52.516;13.290;2023-06-22T11:48:12;6.40;;;4.45;;
73954;SDS011;62306;52.516;13.290;2023-06-22T11:50:40;6.68;;;4.30;;
73954;SDS011;62306;52.516;13.290;2023-06-22T11:53:07;8.82;;;4.55;;
73954;SDS011;62306;52.516;13.290;2023-06-22T11:55:34;5.65;;;4.40;;
73954;SDS011;62306;52.516;13.290;2023-06-22T11:58:01;4.65;;;4.18;;
73954;SDS011;62306;52.516;13.290;2023-06-22T12:00:30;7.40;;;4.30;;
73954;SDS011;62306;52.516;13.290;2023-06-22T12:02:56;8.13;;;4.55;;
73954;SDS011;62306;52.516;13.290;2023-06-22T12:05:23;6.28;;;4.47;;
73954;SDS011;62306;52.516;13.290;2023-06-22T12:07:52;8.10;;;4.90;;
73954;SDS011;62306;52.516;13.290;2023-06-22T12:10:19;5.68;;;5.03;;
73954;SDS011;62306;52.516;13.290;2023-06-22T12:12:46;8.38;;;4.07;;
73954;SDS011;62306;52.516;13.290;2023-06-22T12:15:13;5.57;;;4.55;;
73954;SDS011;62306;52.516;13.290;2023-06-22T12:17:40;8.40;;;5.03;;
73954;SDS011;62306;52.516;13.290;2023-06-22T12:20:08;7.97;;;5.47;;
73954;SDS011;62306;52.516;13.290;2023-06-22T12:22:35;5.30;;;4.18;;
73954;SDS011;62306;52.516;13.290;2023-06-22T12:25:05;8.85;;;5.13;;
73954;SDS011;62306;52.516;13.290;2023-06-22T12:27:32;6.07;;;4.20;;
73954;SDS011;62306;52.516;13.290;2023-06-22T12:30:00;9.05;;;4.32;;
73954;SDS011;62306;52.516;13.290;2023-06-22T12:32:27;7.70;;;4.97;;
73954;SDS011;62306;52.516;13.290;2023-06-22T12:34:54;5.18;;;3.88;;
73954;SDS011;62306;52.516;13.290;2023-06-22T12:37:21;7.88;;;4.78;;
73954;SDS011;62306;52.516;13.290;2023-06-22T12:39:48;7.78;;;4.53;;
73954;SDS011;62306;52.516;13.290;2023-06-22T12:42:16;5.57;;;4.93;;
73954;SDS011;62306;52.516;13.290;2023-06-22T12:44:43;7.68;;;4.13;;
73954;SDS011;62306;52.516;13.290;2023-06-22T12:47:10;8.23;;;4.50;;
73954;SDS011;62306;52.516;13.290;2023-06-22T12:49:38;6.57;;;4.47;;
73954;SDS011;62306;52.516;13.290;2023-06-22T12:52:08;6.22;;;4.68;;
73954;SDS011;62306;52.516;13.290;2023-06-22T12:54:36;7.03;;;5.07;;
73954;SDS011;62306;52.516;13.290;2023-06-22T12:57:03;5.65;;;5.05;;
73954;SDS011;62306;52.516;13.290;2023-06-22T12:59:32;5.88;;;4.40;;
73954;SDS011;62306;52.516;13.290;2023-06-22T13:01:59;5.18;;;4.45;;
73954;SDS011;62306;52.516;13.290;2023-06-22T13:04:26;5.15;;;4.28;;
73954;SDS011;62306;52.516;13.290;2023-06-22T13:06:53;5.43;;;4.50;;
73954;SDS011;62306;52.516;13.290;2023-06-22T13:09:20;13.63;;;5.03;;
73954;SDS011;62306;52.516;13.290;2023-06-22T13:11:47;7.90;;;5.95;;
73954;SDS011;62306;52.516;13.290;2023-06-22T13:14:14;6.78;;;4.57;;
73954;SDS011;62306;52.516;13.290;2023-06-22T13:16:43;6.18;;;5.10;;
73954;SDS011;62306;52.516;13.290;2023-06-22T13:19:12;5.95;;;5.28;;
73954;SDS011;62306;52.516;13.290;2023-06-22T13:21:39;6.57;;;5.03;;
73954;SDS011;62306;52.516;13.290;2023-06-22T13:24:06;9.23;;;5.07;;
73954;SDS011;62306;52.516;13.290;2023-06-22T13:26:33;6.78;;;5.43;;
73954;SDS011;62306;52.516;13.290;2023-06-22T13:29:01;9.02;;;5.00;;
73954;SDS011;62306;52.516;13.290;2023-06-22T13:31:27;10.15;;;5.10;;
73954;SDS011;62306;52.516;13.290;2023-06-22T13:33:56;7.07;;;5.28;;
73954;SDS011;62306;52.516;13.290;2023-06-22T13:36:23;6.82;;;5.18;;
73954;SDS011;62306;52.516;13.290;2023-06-22T13:38:50;7.40;;;4.80;;
73954;SDS011;62306;52.516;13.290;2023-06-22T13:41:17;7.18;;;5.55;;
73954;SDS011;62306;52.516;13.290;2023-06-22T13:43:44;6.07;;;5.47;;
73954;SDS011;62306;52.516;13.290;2023-06-22T13:46:10;5.57;;;5.07;;
73954;SDS011;62306;52.516;13.290;2023-06-22T13:48:37;7.00;;;4.55;;
73954;SDS011;62306;52.516;13.290;2023-06-22T13:51:05;6.53;;;4.78;;
73954;SDS011;62306;52.516;13.290;2023-06-22T13:53:32;7.43;;;5.05;;
73954;SDS011;62306;52.516;13.290;2023-06-22T13:55:59;6.00;;;4.78;;
73954;SDS011;62306;52.516;13.290;2023-06-22T13:58:26;8.85;;;4.88;;
73954;SDS011;62306;52.516;13.290;2023-06-22T14:00:53;5.18;;;4.60;;
73954;SDS011;62306;52.516;13.290;2023-06-22T14:03:20;9.65;;;4.75;;
73954;SDS011;62306;52.516;13.290;2023-06-22T14:05:47;5.20;;;4.70;;
73954;SDS011;62306;52.516;13.290;2023-06-22T14:08:15;7.25;;;4.65;;
73954;SDS011;62306;52.516;13.290;2023-06-22T14:10:42;5.68;;;4.13;;
73954;SDS011;62306;52.516;13.290;2023-06-22T14:13:09;5.57;;;4.93;;
73954;SDS011;62306;52.516;13.290;2023-06-22T14:15:35;5.82;;;4.60;;
73954;SDS011;62306;52.516;13.290;2023-06-22T14:18:03;8.00;;;5.05;;
73954;SDS011;62306;52.516;13.290;2023-06-22T14:20:30;5.63;;;5.03;;
73954;SDS011;62306;52.516;13.290;2023-06-22T14:22:56;5.32;;;4.80;;
73954;SDS011;62306;52.516;13.290;2023-06-22T14:25:24;14.10;;;7.35;;
73954;SDS011;62306;52.516;13.290;2023-06-22T14:27:51;6.10;;;4.97;;